createdAt,value
2017-12-23T00:00:45.798Z,47.70
2017-12-23T00:01:45.792Z,62.00
2017-12-23T00:02:45.787Z,60.50
2017-12-23T00:03:45.783Z,62.10
2017-12-23T00:04:45.777Z,56.60
2017-12-23T00:05:45.783Z,52.80
2017-12-23T00:06:45.773Z,59.00
2017-12-23T00:07:45.769Z,60.60
2017-12-23T00:08:45.762Z,61.70
2017-12-23T00:09:45.758Z,68.80
2017-12-23T00:10:45.761Z,59.60
2017-12-23T00:11:45.747Z,68.50
2017-12-23T00:12:45.743Z,61.80
2017-12-23T00:13:45.734Z,57.80
2017-12-23T00:14:45.729Z,60.40
2017-12-23T00:15:45.724Z,61.20
2017-12-23T00:16:45.695Z,65.00
2017-12-23T00:17:45.691Z,70.10
2017-12-23T00:18:45.686Z,73.00
2017-12-23T00:19:45.680Z,57.30
2017-12-23T00:20:45.677Z,63.30
2017-12-23T00:21:45.676Z,64.60
2017-12-23T00:22:45.671Z,67.10
2017-12-23T00:23:45.666Z,73.10
2017-12-23T00:24:45.665Z,65.80
2017-12-23T00:25:45.659Z,81.30
2017-12-23T00:26:45.653Z,72.60
2017-12-23T00:27:45.649Z,69.50
2017-12-23T00:28:45.644Z,71.40
2017-12-23T00:29:45.636Z,75.30
2017-12-23T00:30:45.632Z,61.70
2017-12-23T00:31:45.625Z,72.10
2017-12-23T00:32:45.623Z,73.10
2017-12-23T00:33:45.628Z,71.10
2017-12-23T00:34:45.617Z,76.90
2017-12-23T00:35:45.611Z,72.00
2017-12-23T00:36:45.607Z,74.90
2017-12-23T00:37:45.600Z,71.80
2017-12-23T00:38:45.597Z,71.10
2017-12-23T00:39:45.592Z,79.20
2017-12-23T00:40:45.588Z,72.30
2017-12-23T00:41:45.584Z,79.50
2017-12-23T00:42:45.578Z,77.90
2017-12-23T00:43:45.572Z,76.90
2017-12-23T00:44:45.568Z,73.90
2017-12-23T00:45:45.568Z,90.20
2017-12-23T00:46:45.564Z,91.90
2017-12-23T00:47:45.558Z,84.60
2017-12-23T00:48:45.555Z,81.00
2017-12-23T00:49:45.550Z,85.10
2017-12-23T00:50:45.546Z,80.40
2017-12-23T00:51:45.540Z,91.70
2017-12-23T00:52:45.536Z,94.30
2017-12-23T00:53:45.528Z,93.10
2017-12-23T00:54:45.524Z,82.70
2017-12-23T00:55:45.518Z,89.90
2017-12-23T00:56:45.513Z,90.50
2017-12-23T00:57:45.510Z,84.20
2017-12-23T00:58:45.505Z,95.50
2017-12-23T00:59:45.500Z,83.60
2017-12-23T01:00:45.495Z,88.20
2017-12-23T01:01:45.495Z,95.00
2017-12-23T01:02:45.491Z,85.50
2017-12-23T01:03:45.490Z,85.50
2017-12-23T01:04:45.482Z,88.60
2017-12-23T01:05:45.478Z,87.30
2017-12-23T01:06:45.473Z,80.90
2017-12-23T01:07:45.468Z,94.70
2017-12-23T01:08:45.464Z,87.00
2017-12-23T01:09:45.454Z,83.90
2017-12-23T01:10:45.451Z,91.00
2017-12-23T01:11:45.445Z,97.90
2017-12-23T01:12:45.441Z,92.20
2017-12-23T01:13:45.436Z,82.00
2017-12-23T01:14:45.431Z,86.20
2017-12-23T01:15:45.426Z,81.40
2017-12-23T01:16:45.423Z,84.50
2017-12-23T01:17:45.422Z,90.00
2017-12-23T01:18:45.417Z,87.10
2017-12-23T01:19:45.413Z,91.00
2017-12-23T01:20:45.408Z,91.90
2017-12-23T01:21:45.403Z,99.70
2017-12-23T01:22:45.398Z,92.50
2017-12-23T01:23:45.393Z,98.10
2017-12-23T01:24:45.389Z,84.70
2017-12-23T01:25:45.380Z,90.40
2017-12-23T01:26:45.376Z,99.60
2017-12-23T01:27:45.371Z,105.90
2017-12-23T01:28:45.373Z,98.40
2017-12-23T01:29:45.363Z,94.80
2017-12-23T01:30:45.359Z,103.60
2017-12-23T01:31:45.352Z,104.90
2017-12-23T01:32:45.348Z,108.60
2017-12-23T01:33:45.347Z,110.80
2017-12-23T01:34:45.343Z,117.60
2017-12-23T01:35:45.337Z,98.90
2017-12-23T01:36:45.334Z,112.20
2017-12-23T01:37:45.325Z,95.80
2017-12-23T01:38:45.320Z,112.20
2017-12-23T01:39:45.314Z,107.40
2017-12-23T01:40:45.310Z,99.90
2017-12-23T01:41:45.314Z,105.40
2017-12-23T01:42:45.305Z,107.10
2017-12-23T01:43:45.299Z,110.00
2017-12-23T01:44:45.294Z,121.20
2017-12-23T01:45:45.291Z,104.80
2017-12-23T01:46:45.285Z,104.50
2017-12-23T01:47:45.280Z,121.10
2017-12-23T01:48:45.275Z,90.80
2017-12-23T01:49:45.272Z,103.70
2017-12-23T01:50:45.261Z,113.30
2017-12-23T01:51:45.256Z,114.10
2017-12-23T01:52:45.251Z,121.00
2017-12-23T01:53:45.247Z,105.20
2017-12-23T01:54:45.242Z,111.90
2017-12-23T01:55:45.236Z,99.20
2017-12-23T01:56:45.231Z,104.70
2017-12-23T01:57:45.231Z,104.80
2017-12-23T01:58:45.227Z,105.30
2017-12-23T01:59:45.221Z,99.40
2017-12-23T02:00:45.216Z,107.90
2017-12-23T02:01:45.211Z,102.60
2017-12-23T02:02:45.207Z,108.60
2017-12-23T02:03:45.201Z,106.20
2017-12-23T02:04:45.196Z,94.70
2017-12-23T02:05:45.187Z,95.70
2017-12-23T02:06:45.184Z,95.00
2017-12-23T02:07:45.178Z,100.10
2017-12-23T02:08:45.173Z,100.50
2017-12-23T02:09:45.169Z,91.60
2017-12-23T02:10:45.163Z,92.80
2017-12-23T02:11:45.158Z,111.10
2017-12-23T02:12:45.153Z,97.10
2017-12-23T02:13:45.152Z,95.30
2017-12-23T02:14:45.148Z,94.80
2017-12-23T02:15:45.143Z,91.80
2017-12-23T02:16:45.139Z,90.00
2017-12-23T02:17:45.131Z,91.90
2017-12-23T02:18:45.127Z,104.10
2017-12-23T02:19:45.120Z,90.40
2017-12-23T02:20:45.116Z,85.40
2017-12-23T02:21:45.107Z,86.00
2017-12-23T02:22:45.127Z,91.70
2017-12-23T02:23:45.096Z,81.50
2017-12-23T02:24:45.093Z,82.50
2017-12-23T02:25:45.087Z,89.50
2017-12-23T02:26:45.082Z,86.20
2017-12-23T02:27:45.077Z,95.40
2017-12-23T02:28:45.075Z,90.70
2017-12-23T02:29:45.070Z,92.90
2017-12-23T02:30:45.067Z,97.70
2017-12-23T02:31:45.059Z,94.70
2017-12-23T02:32:45.055Z,79.20
2017-12-23T02:33:45.051Z,96.30
2017-12-23T02:34:45.046Z,84.00
2017-12-23T02:35:45.043Z,80.30
2017-12-23T02:36:45.035Z,86.80
2017-12-23T02:37:45.027Z,81.20
2017-12-23T02:38:45.020Z,76.10
2017-12-23T02:39:45.014Z,77.80
2017-12-23T02:40:45.010Z,74.90
2017-12-23T02:41:45.008Z,84.90
2017-12-23T02:42:45.004Z,79.50
2017-12-23T02:43:44.999Z,91.00
2017-12-23T02:44:44.992Z,86.00
2017-12-23T02:45:44.984Z,83.40
2017-12-23T02:46:44.980Z,76.80
2017-12-23T02:47:44.973Z,89.80
2017-12-23T02:48:44.968Z,81.50
2017-12-23T02:49:44.963Z,90.10
2017-12-23T02:50:44.960Z,92.60
2017-12-23T02:51:44.953Z,79.20
2017-12-23T02:52:44.948Z,88.20
2017-12-23T02:53:44.947Z,82.80
2017-12-23T02:54:44.942Z,90.30
2017-12-23T02:55:44.936Z,87.30
2017-12-23T02:56:44.932Z,86.50
2017-12-23T02:57:44.927Z,99.30
2017-12-23T02:58:44.922Z,88.10
2017-12-23T02:59:44.916Z,89.30
2017-12-23T03:00:44.912Z,91.60
2017-12-23T03:01:44.902Z,81.20
2017-12-23T03:02:44.897Z,86.70
2017-12-23T03:03:44.891Z,74.40
2017-12-23T03:04:44.886Z,80.60
2017-12-23T03:05:44.881Z,81.50
2017-12-23T03:06:44.876Z,84.40
2017-12-23T03:07:44.870Z,82.60
2017-12-23T03:08:44.866Z,76.40
2017-12-23T03:09:44.865Z,74.60
2017-12-23T03:10:44.861Z,71.40
2017-12-23T03:11:44.854Z,78.80
2017-12-23T03:12:44.849Z,69.50
2017-12-23T03:13:44.844Z,70.10
2017-12-23T03:14:44.839Z,77.70
2017-12-23T03:15:44.832Z,70.00
2017-12-23T03:16:44.827Z,69.90
2017-12-23T03:17:44.817Z,73.90
2017-12-23T03:18:44.812Z,73.50
2017-12-23T03:19:44.807Z,67.20
2017-12-23T03:20:44.804Z,72.70
2017-12-23T03:21:44.797Z,79.70
2017-12-23T03:22:44.791Z,67.90
2017-12-23T03:23:44.785Z,73.30
2017-12-23T03:24:44.780Z,74.50
2017-12-23T03:25:44.779Z,77.80
2017-12-23T03:26:44.774Z,79.10
2017-12-23T03:27:44.767Z,82.70
2017-12-23T03:28:44.762Z,85.40
2017-12-23T03:29:44.757Z,85.70
2017-12-23T03:30:44.755Z,76.10
2017-12-23T03:31:44.747Z,86.90
2017-12-23T03:32:44.741Z,78.70
2017-12-23T03:33:44.733Z,89.90
2017-12-23T03:34:44.727Z,84.70
2017-12-23T03:35:44.720Z,79.80
2017-12-23T03:36:44.715Z,68.90
2017-12-23T03:37:44.710Z,80.00
2017-12-23T03:38:44.707Z,77.80
2017-12-23T03:39:44.699Z,83.00
2017-12-23T03:40:44.694Z,85.80
2017-12-23T03:41:44.693Z,81.30
2017-12-23T03:42:44.688Z,83.40
2017-12-23T03:43:44.682Z,87.00
2017-12-23T03:44:44.677Z,84.50
2017-12-23T03:45:44.671Z,78.90
2017-12-23T03:46:44.667Z,81.70
2017-12-23T03:47:44.660Z,79.90
2017-12-23T03:48:44.655Z,85.20
2017-12-23T03:49:44.646Z,82.70
2017-12-23T03:50:44.640Z,96.80
2017-12-23T03:51:44.636Z,92.50
2017-12-23T03:52:44.628Z,87.70
2017-12-23T03:53:44.624Z,94.00
2017-12-23T03:54:44.618Z,94.90
2017-12-23T03:55:44.614Z,92.70
2017-12-23T03:56:44.607Z,86.80
2017-12-23T03:57:44.607Z,85.90
2017-12-23T03:58:44.600Z,82.80
2017-12-23T03:59:44.595Z,81.50
2017-12-23T04:00:44.592Z,84.70
2017-12-23T04:01:44.588Z,83.90
2017-12-23T04:02:44.579Z,92.70
2017-12-23T04:03:44.574Z,80.70
2017-12-23T04:04:44.568Z,88.40
2017-12-23T04:05:44.560Z,78.10
2017-12-23T04:06:44.553Z,84.30
2017-12-23T04:07:44.546Z,80.70
2017-12-23T04:08:44.541Z,82.00
2017-12-23T04:09:44.536Z,91.40
2017-12-23T04:10:44.586Z,76.70
2017-12-23T04:11:44.524Z,79.50
2017-12-23T04:12:44.525Z,83.20
2017-12-23T04:13:44.518Z,87.60
2017-12-23T04:14:44.514Z,80.50
2017-12-23T04:15:44.508Z,84.80
2017-12-23T04:16:44.502Z,91.10
2017-12-23T04:17:44.496Z,90.90
2017-12-23T04:18:44.491Z,92.50
2017-12-23T04:19:44.485Z,91.70
2017-12-23T04:20:44.483Z,89.10
2017-12-23T04:21:44.472Z,84.30
2017-12-23T04:22:44.465Z,82.50
2017-12-23T04:23:44.459Z,81.60
2017-12-23T04:24:44.453Z,78.40
2017-12-23T04:25:44.452Z,76.90
2017-12-23T04:26:44.443Z,70.30
2017-12-23T04:27:44.437Z,71.90
2017-12-23T04:28:44.440Z,67.50
2017-12-23T04:29:44.430Z,67.20
2017-12-23T04:30:44.425Z,63.80
2017-12-23T04:31:44.419Z,62.60
2017-12-23T04:32:44.413Z,63.40
2017-12-23T04:33:44.407Z,61.00
2017-12-23T04:34:44.402Z,61.60
2017-12-23T04:35:44.397Z,63.60
2017-12-23T04:36:44.390Z,60.40
2017-12-23T04:37:44.380Z,59.60
2017-12-23T04:38:44.376Z,63.60
2017-12-23T04:39:44.370Z,59.40
2017-12-23T04:40:44.365Z,59.20
2017-12-23T04:41:44.359Z,61.70
2017-12-23T04:42:44.359Z,59.30
2017-12-23T04:43:44.347Z,58.60
2017-12-23T04:44:44.344Z,55.60
2017-12-23T04:45:44.345Z,56.40
2017-12-23T04:46:44.336Z,53.50
2017-12-23T04:47:44.330Z,57.50
2017-12-23T04:48:44.328Z,52.90
2017-12-23T04:49:44.314Z,60.50
2017-12-23T04:50:44.308Z,58.40
2017-12-23T04:51:44.302Z,55.20
2017-12-23T04:52:44.299Z,49.40
2017-12-23T04:53:44.297Z,52.80
2017-12-23T04:54:44.292Z,57.10
2017-12-23T04:55:44.285Z,55.40
2017-12-23T04:56:44.280Z,60.90
2017-12-23T04:57:44.276Z,58.20
2017-12-23T04:58:44.271Z,57.60
2017-12-23T04:59:44.263Z,63.40
2017-12-23T05:00:44.259Z,64.20
2017-12-23T05:01:44.250Z,66.40
2017-12-23T05:02:44.243Z,61.20
2017-12-23T05:03:44.237Z,65.30
2017-12-23T05:04:44.232Z,62.30
2017-12-23T05:05:44.226Z,57.90
2017-12-23T05:06:44.221Z,60.60
2017-12-23T05:07:44.221Z,62.50
2017-12-23T05:08:44.209Z,57.30
2017-12-23T05:09:44.209Z,67.90
2017-12-23T05:10:44.203Z,67.50
2017-12-23T05:11:44.197Z,73.80
2017-12-23T05:12:44.192Z,71.50
2017-12-23T05:13:44.191Z,69.20
2017-12-23T05:14:44.180Z,71.50
2017-12-23T05:15:44.175Z,69.80
2017-12-23T05:16:44.170Z,75.90
2017-12-23T05:17:44.160Z,73.80
2017-12-23T05:18:44.158Z,75.60
2017-12-23T05:19:44.149Z,77.90
2017-12-23T05:20:44.142Z,83.80
2017-12-23T05:21:44.137Z,89.20
2017-12-23T05:22:44.132Z,90.10
2017-12-23T05:23:44.125Z,91.90
2017-12-23T05:24:44.120Z,91.50
2017-12-23T05:25:44.119Z,96.80
2017-12-23T05:26:44.114Z,97.70
2017-12-23T05:27:44.108Z,93.60
2017-12-23T05:28:44.102Z,98.00
2017-12-23T05:29:44.098Z,95.50
2017-12-23T05:30:44.091Z,102.10
2017-12-23T05:31:44.085Z,101.20
2017-12-23T05:32:44.079Z,93.90
2017-12-23T05:33:44.070Z,95.50
2017-12-23T05:34:44.065Z,96.70
2017-12-23T05:35:44.058Z,112.30
2017-12-23T05:36:44.053Z,104.00
2017-12-23T05:37:44.050Z,100.60
2017-12-23T05:38:44.043Z,100.40
2017-12-23T05:39:44.036Z,103.30
2017-12-23T05:40:44.031Z,102.60
2017-12-23T05:41:44.030Z,98.80
2017-12-23T05:42:44.026Z,114.30
2017-12-23T05:43:44.018Z,110.40
2017-12-23T05:44:44.013Z,105.80
2017-12-23T05:45:44.007Z,107.40
2017-12-23T05:46:44.003Z,113.40
2017-12-23T05:47:43.996Z,110.60
2017-12-23T05:48:43.991Z,114.40
2017-12-23T05:49:43.981Z,119.10
2017-12-23T05:50:43.975Z,111.60
2017-12-23T05:51:43.980Z,121.20
2017-12-23T05:52:43.964Z,117.70
2017-12-23T05:53:43.963Z,125.80
2017-12-23T05:54:43.958Z,124.60
2017-12-23T05:55:43.952Z,121.00
2017-12-23T05:56:43.948Z,119.30
2017-12-23T05:57:43.938Z,132.80
2017-12-23T05:58:43.931Z,133.60
2017-12-23T05:59:43.926Z,134.10
2017-12-23T06:00:43.920Z,142.60
2017-12-23T06:01:43.914Z,132.00
2017-12-23T06:02:43.912Z,137.50
2017-12-23T06:03:43.903Z,144.10
2017-12-23T06:04:43.900Z,137.50
2017-12-23T06:05:43.897Z,139.10
2017-12-23T06:06:43.891Z,136.50
2017-12-23T06:07:43.886Z,149.00
2017-12-23T06:08:43.880Z,135.10
2017-12-23T06:09:43.875Z,142.60
2017-12-23T06:10:43.870Z,139.80
2017-12-23T06:11:43.863Z,150.10
2017-12-23T06:12:43.858Z,141.90
2017-12-23T06:13:43.849Z,149.70
2017-12-23T06:14:43.843Z,139.10
2017-12-23T06:15:43.837Z,136.10
2017-12-23T06:16:43.832Z,161.70
2017-12-23T06:17:43.826Z,153.90
2017-12-23T06:18:43.821Z,131.20
2017-12-23T06:19:43.815Z,144.10
2017-12-23T06:20:43.809Z,147.20
2017-12-23T06:21:43.811Z,157.80
2017-12-23T06:22:43.803Z,162.60
2017-12-23T06:23:43.796Z,177.10
2017-12-23T06:24:43.790Z,170.90
2017-12-23T06:25:43.786Z,144.90
2017-12-23T06:26:43.782Z,163.80
2017-12-23T06:27:43.776Z,150.70
2017-12-23T06:28:43.771Z,175.30
2017-12-23T06:29:43.762Z,152.40
2017-12-23T06:30:43.756Z,160.30
2017-12-23T06:31:43.748Z,167.70
2017-12-23T06:32:43.744Z,175.70
2017-12-23T06:33:43.739Z,180.50
2017-12-23T06:34:43.734Z,158.90
2017-12-23T06:35:43.728Z,173.00
2017-12-23T06:36:43.722Z,159.30
2017-12-23T06:37:43.721Z,164.30
2017-12-23T06:38:43.716Z,180.50
2017-12-23T06:39:43.711Z,185.70
2017-12-23T06:40:43.705Z,178.00
2017-12-23T06:41:43.699Z,164.10
2017-12-23T06:42:43.694Z,178.30
2017-12-23T06:43:43.689Z,175.30
2017-12-23T06:44:43.683Z,150.10
2017-12-23T06:45:43.674Z,163.60
2017-12-23T06:46:43.669Z,172.60
2017-12-23T06:47:43.662Z,177.70
2017-12-23T06:48:43.657Z,169.20
2017-12-23T06:49:43.652Z,186.40
2017-12-23T06:50:43.646Z,187.80
2017-12-23T06:51:43.640Z,169.50
2017-12-23T06:52:43.635Z,170.50
2017-12-23T06:53:43.634Z,194.90
2017-12-23T06:54:43.630Z,185.80
2017-12-23T06:55:43.623Z,185.50
2017-12-23T06:56:43.619Z,174.00
2017-12-23T06:57:43.608Z,182.50
2017-12-23T06:58:43.609Z,186.30
2017-12-23T06:59:43.597Z,164.50
2017-12-23T07:00:43.592Z,202.10
2017-12-23T07:01:43.591Z,179.20
2017-12-23T07:02:43.585Z,177.70
2017-12-23T07:03:43.581Z,187.00
2017-12-23T07:04:43.575Z,191.10
2017-12-23T07:05:43.569Z,171.80
2017-12-23T07:06:43.564Z,177.00
2017-12-23T07:07:43.558Z,159.50
2017-12-23T07:08:43.551Z,177.30
2017-12-23T07:09:43.543Z,171.70
2017-12-23T07:10:43.538Z,175.60
2017-12-23T07:11:43.530Z,175.20
2017-12-23T07:12:43.526Z,170.60
2017-12-23T07:13:43.547Z,168.90
2017-12-23T07:14:43.515Z,170.80
2017-12-23T07:15:43.508Z,175.90
2017-12-23T07:16:43.503Z,165.20
2017-12-23T07:17:43.503Z,173.30
2017-12-23T07:18:43.496Z,165.10
2017-12-23T07:19:43.490Z,176.00
2017-12-23T07:20:43.485Z,158.00
2017-12-23T07:21:43.481Z,169.70
2017-12-23T07:22:43.473Z,164.10
2017-12-23T07:23:43.467Z,157.00
2017-12-23T07:24:43.462Z,152.80
2017-12-23T07:25:43.452Z,159.80
2017-12-23T07:26:43.447Z,160.10
2017-12-23T07:27:43.440Z,159.00
2017-12-23T07:28:43.435Z,151.20
2017-12-23T07:29:43.431Z,160.10
2017-12-23T07:30:43.425Z,162.90
2017-12-23T07:31:43.418Z,166.90
2017-12-23T07:32:43.413Z,158.60
2017-12-23T07:33:43.412Z,147.90
2017-12-23T07:34:43.408Z,156.70
2017-12-23T07:35:43.400Z,141.10
2017-12-23T07:36:43.395Z,130.90
2017-12-23T07:37:43.390Z,145.50
2017-12-23T07:38:43.388Z,141.30
2017-12-23T07:39:43.379Z,140.00
2017-12-23T07:40:43.373Z,138.10
2017-12-23T07:41:43.363Z,141.10
2017-12-23T07:42:43.358Z,126.30
2017-12-23T07:43:43.351Z,127.90
2017-12-23T07:44:43.346Z,138.70
2017-12-23T07:45:43.342Z,140.90
2017-12-23T07:46:43.337Z,136.70
2017-12-23T07:47:43.331Z,136.30
2017-12-23T07:48:43.327Z,130.40
2017-12-23T07:49:43.324Z,138.30
2017-12-23T07:50:43.319Z,126.10
2017-12-23T07:51:43.312Z,119.40
2017-12-23T07:52:43.307Z,127.30
2017-12-23T07:53:43.301Z,120.90
2017-12-23T07:54:43.300Z,123.80
2017-12-23T07:55:43.290Z,115.80
2017-12-23T07:56:43.285Z,118.30
2017-12-23T07:57:43.275Z,110.80
2017-12-23T07:58:43.271Z,107.00
2017-12-23T07:59:43.265Z,104.60
2017-12-23T08:00:43.258Z,99.10
2017-12-23T08:01:43.254Z,96.80
2017-12-23T08:02:43.248Z,91.50
2017-12-23T08:03:43.241Z,91.60
2017-12-23T08:04:43.236Z,94.20
2017-12-23T08:05:43.235Z,93.30
2017-12-23T08:06:43.229Z,101.80
2017-12-23T08:07:43.223Z,94.70
2017-12-23T08:08:43.217Z,92.90
2017-12-23T08:09:43.225Z,91.00
2017-12-23T08:10:43.206Z,86.30
2017-12-23T08:11:43.201Z,92.10
2017-12-23T08:12:43.197Z,91.10
2017-12-23T08:13:43.187Z,90.60
2017-12-23T08:14:43.180Z,86.80
2017-12-23T08:15:43.175Z,97.00
2017-12-23T08:16:43.168Z,83.70
2017-12-23T08:17:43.163Z,90.70
2017-12-23T08:18:43.158Z,85.50
2017-12-23T08:19:43.152Z,82.60
2017-12-23T08:20:43.151Z,97.50
2017-12-23T08:21:43.147Z,88.50
2017-12-23T08:22:43.140Z,87.80
2017-12-23T08:23:43.134Z,87.50
2017-12-23T08:24:43.130Z,91.50
2017-12-23T08:25:43.123Z,85.00
2017-12-23T08:26:43.118Z,85.00
2017-12-23T08:27:43.112Z,87.90
2017-12-23T08:28:43.108Z,83.40
2017-12-23T08:29:43.098Z,80.40
2017-12-23T08:30:43.098Z,81.60
2017-12-23T08:31:43.086Z,80.90
2017-12-23T08:32:43.081Z,82.20
2017-12-23T08:33:43.075Z,84.30
2017-12-23T08:34:43.072Z,82.20
2017-12-23T08:35:43.064Z,84.80
2017-12-23T08:36:43.061Z,79.10
2017-12-23T08:37:43.059Z,87.00
2017-12-23T08:38:43.053Z,80.10
2017-12-23T08:39:43.047Z,75.40
2017-12-23T08:40:43.043Z,73.40
2017-12-23T08:41:43.036Z,73.90
2017-12-23T08:42:43.031Z,75.60
2017-12-23T08:43:43.024Z,75.70
2017-12-23T08:44:43.022Z,75.60
2017-12-23T08:45:43.011Z,80.40
2017-12-23T08:46:43.006Z,75.40
2017-12-23T08:47:43.001Z,75.60
2017-12-23T08:48:42.998Z,74.40
2017-12-23T08:49:42.989Z,75.00
2017-12-23T08:50:42.986Z,64.60
2017-12-23T08:51:42.979Z,66.90
2017-12-23T08:52:42.973Z,62.60
2017-12-23T08:53:42.972Z,66.40
2017-12-23T08:54:42.967Z,69.30
2017-12-23T08:55:42.962Z,69.00
2017-12-23T08:56:42.955Z,76.30
2017-12-23T08:57:42.951Z,67.40
2017-12-23T08:58:42.945Z,72.20
2017-12-23T08:59:42.941Z,67.90
2017-12-23T09:00:42.935Z,61.70
2017-12-23T09:01:42.925Z,61.20
2017-12-23T09:02:42.920Z,63.50
2017-12-23T09:03:42.952Z,64.20
2017-12-23T09:04:42.913Z,66.70
2017-12-23T09:05:42.908Z,64.40
2017-12-23T09:06:42.903Z,67.10
2017-12-23T09:07:42.898Z,64.80
2017-12-23T09:08:42.894Z,68.50
2017-12-23T09:09:42.883Z,71.70
2017-12-23T09:10:42.878Z,73.80
2017-12-23T09:11:42.872Z,68.00
2017-12-23T09:12:42.867Z,73.20
2017-12-23T09:13:42.863Z,68.20
2017-12-23T09:14:42.858Z,71.70
2017-12-23T09:15:42.852Z,65.60
2017-12-23T09:16:42.847Z,68.40
2017-12-23T09:17:42.847Z,66.10
2017-12-23T09:18:42.841Z,57.50
2017-12-23T09:19:42.836Z,63.50
2017-12-23T09:20:42.829Z,69.10
2017-12-23T09:21:42.825Z,61.60
2017-12-23T09:22:42.821Z,60.20
2017-12-23T09:23:42.813Z,54.10
2017-12-23T09:24:42.808Z,51.90
2017-12-23T09:25:42.799Z,51.10
2017-12-23T09:26:42.794Z,48.90
2017-12-23T09:27:42.788Z,47.60
2017-12-23T09:28:42.784Z,50.00
2017-12-23T09:29:42.778Z,43.20
2017-12-23T09:30:42.773Z,45.40
2017-12-23T09:31:42.766Z,43.20
2017-12-23T09:32:42.763Z,39.80
2017-12-23T09:33:42.762Z,43.00
2017-12-23T09:34:42.757Z,39.30
2017-12-23T09:35:42.751Z,37.70
2017-12-23T09:36:42.745Z,35.50
2017-12-23T09:37:42.740Z,33.90
2017-12-23T09:38:42.736Z,34.50
2017-12-23T09:39:42.729Z,33.50
2017-12-23T09:40:42.724Z,34.40
2017-12-23T09:41:42.715Z,30.20
2017-12-23T09:42:42.711Z,32.50
2017-12-23T09:43:42.704Z,29.40
2017-12-23T09:44:42.699Z,27.80
2017-12-23T09:45:42.694Z,26.10
2017-12-23T09:46:42.691Z,24.20
2017-12-23T09:47:42.684Z,27.90
2017-12-23T09:48:42.686Z,26.60
2017-12-23T09:49:42.679Z,26.60
2017-12-23T09:50:42.674Z,26.20
2017-12-23T09:51:42.667Z,27.30
2017-12-23T09:52:42.662Z,26.80
2017-12-23T09:53:42.658Z,25.90
2017-12-23T09:54:42.653Z,29.30
2017-12-23T09:55:42.647Z,28.00
2017-12-23T09:56:42.642Z,28.20
2017-12-23T09:57:42.635Z,27.80
2017-12-23T09:58:42.628Z,29.30
2017-12-23T09:59:42.622Z,29.80
2017-12-23T10:00:42.617Z,30.70
2017-12-23T10:01:42.622Z,28.50
2017-12-23T10:02:42.610Z,27.70
2017-12-23T10:03:42.602Z,29.20
2017-12-23T10:04:42.596Z,31.20
2017-12-23T10:05:42.597Z,31.10
2017-12-23T10:06:42.591Z,32.50
2017-12-23T10:07:42.586Z,31.60
2017-12-23T10:08:42.580Z,31.40
2017-12-23T10:09:42.571Z,31.30
2017-12-23T10:10:42.566Z,32.70
2017-12-23T10:11:42.561Z,32.00
2017-12-23T10:12:42.556Z,28.80
2017-12-23T10:13:42.554Z,33.50
2017-12-23T10:14:42.549Z,31.60
2017-12-23T10:15:42.543Z,32.60
2017-12-23T10:16:42.539Z,30.40
2017-12-23T10:17:42.533Z,31.00
2017-12-23T10:18:42.531Z,35.50
2017-12-23T10:19:42.523Z,29.60
2017-12-23T10:20:42.518Z,28.40
2017-12-23T10:21:42.509Z,30.70
2017-12-23T10:22:42.503Z,31.70
2017-12-23T10:23:42.499Z,30.70
2017-12-23T10:24:42.494Z,28.20
2017-12-23T10:25:42.488Z,28.70
2017-12-23T10:26:42.483Z,28.40
2017-12-23T10:27:42.478Z,31.50
2017-12-23T10:28:42.472Z,26.00
2017-12-23T10:29:42.472Z,27.10
2017-12-23T10:30:42.468Z,26.20
2017-12-23T10:31:42.463Z,23.90
2017-12-23T10:32:42.456Z,25.90
2017-12-23T10:33:42.451Z,23.80
2017-12-23T10:34:42.447Z,23.60
2017-12-23T10:35:42.441Z,23.40
2017-12-23T10:36:42.437Z,25.70
2017-12-23T10:37:42.428Z,25.50
2017-12-23T10:38:42.422Z,29.20
2017-12-23T10:39:42.417Z,26.50
2017-12-23T10:40:42.412Z,31.40
2017-12-23T10:41:42.407Z,29.10
2017-12-23T10:42:42.402Z,26.80
2017-12-23T10:43:42.396Z,26.40
2017-12-23T10:44:42.392Z,29.50
2017-12-23T10:45:42.391Z,25.90
2017-12-23T10:46:42.386Z,28.00
2017-12-23T10:47:42.381Z,27.40
2017-12-23T10:48:42.377Z,29.10
2017-12-23T10:49:42.373Z,28.40
2017-12-23T10:50:42.366Z,29.30
2017-12-23T10:51:42.362Z,28.90
2017-12-23T10:52:42.357Z,25.10
2017-12-23T10:53:42.347Z,26.00
2017-12-23T10:54:42.342Z,26.40
2017-12-23T10:55:42.336Z,27.30
2017-12-23T10:56:42.332Z,27.60
2017-12-23T10:57:42.328Z,27.30
2017-12-23T10:58:42.323Z,26.00
2017-12-23T10:59:42.320Z,27.30
2017-12-23T11:00:42.312Z,25.30
2017-12-23T11:01:42.313Z,25.70
2017-12-23T11:02:42.308Z,24.90
2017-12-23T11:03:42.301Z,26.80
2017-12-23T11:04:42.297Z,25.20
2017-12-23T11:05:42.293Z,24.00
2017-12-23T11:06:42.287Z,23.90
2017-12-23T11:07:42.281Z,21.00
2017-12-23T11:08:42.278Z,21.80
2017-12-23T11:09:42.274Z,25.20
2017-12-23T11:10:42.263Z,22.50
2017-12-23T11:11:42.258Z,24.30
2017-12-23T11:12:42.257Z,21.70
2017-12-23T11:13:42.254Z,21.00
2017-12-23T11:14:42.248Z,23.50
2017-12-23T11:15:42.243Z,25.50
2017-12-23T11:16:42.244Z,21.60
2017-12-23T11:17:42.229Z,24.50
2017-12-23T11:18:42.225Z,22.80
2017-12-23T11:19:42.220Z,22.40
2017-12-23T11:20:42.214Z,22.40
2017-12-23T11:21:42.214Z,23.10
2017-12-23T11:22:42.205Z,23.30
2017-12-23T11:23:42.199Z,21.80
2017-12-23T11:24:42.208Z,24.60
2017-12-23T11:25:42.197Z,22.30
2017-12-23T11:26:42.189Z,20.90
2017-12-23T11:27:42.185Z,21.90
2017-12-23T11:28:42.179Z,21.10
2017-12-23T11:29:42.175Z,22.10
2017-12-23T11:30:42.170Z,21.20
2017-12-23T11:31:42.164Z,19.60
2017-12-23T11:32:42.159Z,24.20
2017-12-23T11:33:42.154Z,19.60
2017-12-23T11:34:42.146Z,22.90
2017-12-23T11:35:42.140Z,23.30
2017-12-23T11:36:42.136Z,22.70
2017-12-23T11:37:42.135Z,24.20
2017-12-23T11:38:42.163Z,21.80
2017-12-23T11:39:42.122Z,24.40
2017-12-23T11:40:42.117Z,25.50
2017-12-23T11:41:42.116Z,23.60
2017-12-23T11:42:42.111Z,24.40
2017-12-23T11:43:42.104Z,22.20
2017-12-23T11:44:42.100Z,21.70
2017-12-23T11:45:42.101Z,24.70
2017-12-23T11:46:42.091Z,23.00
2017-12-23T11:47:42.086Z,20.50
2017-12-23T11:48:42.081Z,20.50
2017-12-23T11:49:42.072Z,18.70
2017-12-23T11:50:42.068Z,19.10
2017-12-23T11:51:42.061Z,20.00
2017-12-23T11:52:42.057Z,19.40
2017-12-23T11:53:42.052Z,17.80
2017-12-23T11:54:42.047Z,17.70
2017-12-23T11:55:42.042Z,18.60
2017-12-23T11:56:42.037Z,22.70
2017-12-23T11:57:42.037Z,19.10
2017-12-23T11:58:42.031Z,20.90
2017-12-23T11:59:42.027Z,17.10
2017-12-23T12:00:42.021Z,17.10
2017-12-23T12:01:42.018Z,18.00
2017-12-23T12:02:42.011Z,16.10
2017-12-23T12:03:42.005Z,18.80
2017-12-23T12:04:42.002Z,19.40
2017-12-23T12:05:41.991Z,16.90
2017-12-23T12:06:41.993Z,20.30
2017-12-23T12:07:41.981Z,17.80
2017-12-23T12:08:41.987Z,16.50
2017-12-23T12:09:41.972Z,18.10
2017-12-23T12:10:41.966Z,18.00
2017-12-23T12:11:41.961Z,18.60
2017-12-23T12:12:41.958Z,17.30
2017-12-23T12:13:41.955Z,17.60
2017-12-23T12:14:41.950Z,18.70
2017-12-23T12:15:41.945Z,18.70
2017-12-23T12:16:41.940Z,20.60
2017-12-23T12:17:41.935Z,19.20
2017-12-23T12:18:41.931Z,21.70
2017-12-23T12:19:41.944Z,18.40
2017-12-23T12:20:41.919Z,18.90
2017-12-23T12:21:41.912Z,20.70
2017-12-23T12:22:41.906Z,20.60
2017-12-23T12:23:41.899Z,20.60
2017-12-23T12:24:41.895Z,21.10
2017-12-23T12:25:41.889Z,19.90
2017-12-23T12:26:41.888Z,19.90
2017-12-23T12:27:41.879Z,20.60
2017-12-23T12:28:41.875Z,22.80
2017-12-23T12:29:41.874Z,20.30
2017-12-23T12:30:41.869Z,19.30
2017-12-23T12:31:41.864Z,21.50
2017-12-23T12:32:41.876Z,20.90
2017-12-23T12:33:41.854Z,22.10
2017-12-23T12:34:41.848Z,23.90
2017-12-23T12:35:41.843Z,22.90
2017-12-23T12:36:41.838Z,24.40
2017-12-23T12:37:41.829Z,22.90
2017-12-23T12:38:41.833Z,20.60
2017-12-23T12:39:41.819Z,22.00
2017-12-23T12:40:41.814Z,22.30
2017-12-23T12:41:41.809Z,21.80
2017-12-23T12:42:41.805Z,20.80
2017-12-23T12:43:41.802Z,22.00
2017-12-23T12:44:41.794Z,21.00
2017-12-23T12:45:41.791Z,20.00
2017-12-23T12:46:41.788Z,19.20